sensor_id;sensor_type;location;lat;lon;timestamp;temperature;humidity
17887;DHT22;9069;52.044;7.472;2023-04-19T00:01:58;13.50;90.10
17887;DHT22;9069;52.044;7.472;2023-04-19T00:04:25;13.40;90.10
17887;DHT22;9069;52.044;7.472;2023-04-19T00:06:52;13.40;90.10
17887;DHT22;9069;52.044;7.472;2023-04-19T00:09:19;13.40;90.20
17887;DHT22;9069;52.044;7.472;2023-04-19T00:11:45;13.40;90.50
17887;DHT22;9069;52.044;7.472;2023-04-19T00:14:12;13.30;90.20
17887;DHT22;9069;52.044;7.472;2023-04-19T00:16:40;13.50;90.30
17887;DHT22;9069;52.044;7.472;2023-04-19T00:19:07;13.30;90.20
17887;DHT22;9069;52.044;7.472;2023-04-19T00:21:34;13.30;90.30
17887;DHT22;9069;52.044;7.472;2023-04-19T00:24:01;13.20;90.30
17887;DHT22;9069;52.044;7.472;2023-04-19T00:26:28;13.20;90.30
17887;DHT22;9069;52.044;7.472;2023-04-19T00:28:56;13.20;90.30
17887;DHT22;9069;52.044;7.472;2023-04-19T00:31:22;13.10;90.30
17887;DHT22;9069;52.044;7.472;2023-04-19T00:33:49;13.10;90.30
17887;DHT22;9069;52.044;7.472;2023-04-19T00:36:17;13.10;90.30
17887;DHT22;9069;52.044;7.472;2023-04-19T00:38:45;13.00;90.30
17887;DHT22;9069;52.044;7.472;2023-04-19T00:41:12;13.00;90.70
17887;DHT22;9069;52.044;7.472;2023-04-19T00:43:39;12.90;90.30
17887;DHT22;9069;52.044;7.472;2023-04-19T00:46:05;12.90;90.40
17887;DHT22;9069;52.044;7.472;2023-04-19T00:48:33;12.90;90.40
17887;DHT22;9069;52.044;7.472;2023-04-19T00:51:02;12.90;90.50
17887;DHT22;9069;52.044;7.472;2023-04-19T00:53:30;12.80;90.40
17887;DHT22;9069;52.044;7.472;2023-04-19T00:55:58;12.80;90.40
17887;DHT22;9069;52.044;7.472;2023-04-19T00:58:27;12.80;90.50
17887;DHT22;9069;52.044;7.472;2023-04-19T01:00:57;12.80;90.50
17887;DHT22;9069;52.044;7.472;2023-04-19T01:03:24;12.80;90.40
17887;DHT22;9069;52.044;7.472;2023-04-19T01:05:53;12.70;90.40
17887;DHT22;9069;52.044;7.472;2023-04-19T01:08:19;12.70;90.40
17887;DHT22;9069;52.044;7.472;2023-04-19T01:10:46;12.70;90.40
17887;DHT22;9069;52.044;7.472;2023-04-19T01:13:14;12.70;90.50
17887;DHT22;9069;52.044;7.472;2023-04-19T01:15:41;12.60;90.40
17887;DHT22;9069;52.044;7.472;2023-04-19T01:18:08;12.60;90.50
17887;DHT22;9069;52.044;7.472;2023-04-19T01:20:34;12.60;90.50
17887;DHT22;9069;52.044;7.472;2023-04-19T01:23:01;12.60;90.50
17887;DHT22;9069;52.044;7.472;2023-04-19T01:25:28;12.60;90.50
17887;DHT22;9069;52.044;7.472;2023-04-19T01:27:55;12.50;90.50
17887;DHT22;9069;52.044;7.472;2023-04-19T01:30:22;12.50;90.60
17887;DHT22;9069;52.044;7.472;2023-04-19T01:32:49;12.50;90.60
17887;DHT22;9069;52.044;7.472;2023-04-19T01:35:16;12.50;90.60
17887;DHT22;9069;52.044;7.472;2023-04-19T01:37:43;12.50;90.60
17887;DHT22;9069;52.044;7.472;2023-04-19T01:40:10;12.50;90.60
17887;DHT22;9069;52.044;7.472;2023-04-19T01:42:37;12.50;90.60
17887;DHT22;9069;52.044;7.472;2023-04-19T01:45:04;12.40;90.70
17887;DHT22;9069;52.044;7.472;2023-04-19T01:47:31;12.40;90.60
17887;DHT22;9069;52.044;7.472;2023-04-19T01:49:57;12.40;90.60
17887;DHT22;9069;52.044;7.472;2023-04-19T01:52:24;12.40;90.60
17887;DHT22;9069;52.044;7.472;2023-04-19T01:54:51;12.40;90.60
17887;DHT22;9069;52.044;7.472;2023-04-19T01:57:17;12.40;90.60
17887;DHT22;9069;52.044;7.472;2023-04-19T01:59:46;12.40;90.50
17887;DHT22;9069;52.044;7.472;2023-04-19T02:02:12;12.40;90.60
17887;DHT22;9069;52.044;7.472;2023-04-19T02:04:39;12.40;90.50
17887;DHT22;9069;52.044;7.472;2023-04-19T02:07:06;12.40;90.50
17887;DHT22;9069;52.044;7.472;2023-04-19T02:09:37;12.40;90.50
17887;DHT22;9069;52.044;7.472;2023-04-19T02:12:04;12.40;90.60
17887;DHT22;9069;52.044;7.472;2023-04-19T02:14:31;12.40;90.40
17887;DHT22;9069;52.044;7.472;2023-04-19T02:16:57;12.40;90.30
17887;DHT22;9069;52.044;7.472;2023-04-19T02:19:24;12.40;90.30
17887;DHT22;9069;52.044;7.472;2023-04-19T02:21:51;12.40;90.30
17887;DHT22;9069;52.044;7.472;2023-04-19T02:24:19;12.40;90.20
17887;DHT22;9069;52.044;7.472;2023-04-19T02:26:46;12.30;90.30
17887;DHT22;9069;52.044;7.472;2023-04-19T02:29:13;12.40;89.80
17887;DHT22;9069;52.044;7.472;2023-04-19T02:31:42;12.30;89.50
17887;DHT22;9069;52.044;7.472;2023-04-19T02:34:11;12.30;89.20
17887;DHT22;9069;52.044;7.472;2023-04-19T02:36:38;12.30;88.90
17887;DHT22;9069;52.044;7.472;2023-04-19T02:39:04;12.30;88.60
17887;DHT22;9069;52.044;7.472;2023-04-19T02:41:31;12.30;88.20
17887;DHT22;9069;52.044;7.472;2023-04-19T02:44:00;12.30;87.70
17887;DHT22;9069;52.044;7.472;2023-04-19T02:46:27;12.30;87.30
17887;DHT22;9069;52.044;7.472;2023-04-19T02:48:54;12.30;86.80
17887;DHT22;9069;52.044;7.472;2023-04-19T02:51:21;12.30;86.40
17887;DHT22;9069;52.044;7.472;2023-04-19T02:53:48;12.30;86.10
17887;DHT22;9069;52.044;7.472;2023-04-19T02:56:15;12.30;85.70
17887;DHT22;9069;52.044;7.472;2023-04-19T02:58:42;12.30;85.50
17887;DHT22;9069;52.044;7.472;2023-04-19T03:01:09;12.30;85.20
17887;DHT22;9069;52.044;7.472;2023-04-19T03:03:36;12.40;84.30
17887;DHT22;9069;52.044;7.472;2023-04-19T03:06:03;12.30;83.70
17887;DHT22;9069;52.044;7.472;2023-04-19T03:08:31;12.30;83.00
17887;DHT22;9069;52.044;7.472;2023-04-19T03:10:58;12.30;82.00
17887;DHT22;9069;52.044;7.472;2023-04-19T03:13:25;12.20;81.70
17887;DHT22;9069;52.044;7.472;2023-04-19T03:15:51;12.20;81.50
17887;DHT22;9069;52.044;7.472;2023-04-19T03:18:21;12.20;81.50
17887;DHT22;9069;52.044;7.472;2023-04-19T03:20:49;12.20;81.60
17887;DHT22;9069;52.044;7.472;2023-04-19T03:23:16;12.20;81.70
17887;DHT22;9069;52.044;7.472;2023-04-19T03:25:44;12.20;81.90
17887;DHT22;9069;52.044;7.472;2023-04-19T03:28:23;12.20;81.80
17887;DHT22;9069;52.044;7.472;2023-04-19T03:31:08;12.20;82.00
17887;DHT22;9069;52.044;7.472;2023-04-19T03:33:36;12.10;82.00
17887;DHT22;9069;52.044;7.472;2023-04-19T03:36:03;12.10;81.60
17887;DHT22;9069;52.044;7.472;2023-04-19T03:38:30;12.10;81.40
17887;DHT22;9069;52.044;7.472;2023-04-19T03:40:58;12.10;81.00
17887;DHT22;9069;52.044;7.472;2023-04-19T03:43:28;12.10;80.40
17887;DHT22;9069;52.044;7.472;2023-04-19T03:45:55;12.00;79.40
17887;DHT22;9069;52.044;7.472;2023-04-19T03:48:22;12.00;78.50
17887;DHT22;9069;52.044;7.472;2023-04-19T03:50:49;12.00;78.30
17887;DHT22;9069;52.044;7.472;2023-04-19T03:53:17;12.00;78.50
17887;DHT22;9069;52.044;7.472;2023-04-19T03:55:44;11.90;78.40
17887;DHT22;9069;52.044;7.472;2023-04-19T03:58:11;11.90;78.20
17887;DHT22;9069;52.044;7.472;2023-04-19T04:00:46;11.90;77.60
17887;DHT22;9069;52.044;7.472;2023-04-19T04:03:14;11.90;77.30
17887;DHT22;9069;52.044;7.472;2023-04-19T04:05:41;11.90;76.70
17887;DHT22;9069;52.044;7.472;2023-04-19T04:08:08;11.80;75.50
17887;DHT22;9069;52.044;7.472;2023-04-19T04:10:35;11.80;75.10
17887;DHT22;9069;52.044;7.472;2023-04-19T04:13:02;11.80;74.80
17887;DHT22;9069;52.044;7.472;2023-04-19T04:15:39;11.80;74.00
17887;DHT22;9069;52.044;7.472;2023-04-19T04:18:09;11.70;73.50
17887;DHT22;9069;52.044;7.472;2023-04-19T04:20:36;11.70;73.40
17887;DHT22;9069;52.044;7.472;2023-04-19T04:23:07;11.70;73.20
17887;DHT22;9069;52.044;7.472;2023-04-19T04:25:36;11.60;72.00
17887;DHT22;9069;52.044;7.472;2023-04-19T04:28:08;11.60;71.90
17887;DHT22;9069;52.044;7.472;2023-04-19T04:30:38;11.60;71.70
17887;DHT22;9069;52.044;7.472;2023-04-19T04:33:08;11.50;71.10
17887;DHT22;9069;52.044;7.472;2023-04-19T04:35:38;11.50;70.90
17887;DHT22;9069;52.044;7.472;2023-04-19T04:38:10;11.40;70.50
17887;DHT22;9069;52.044;7.472;2023-04-19T04:40:50;11.40;69.90
17887;DHT22;9069;52.044;7.472;2023-04-19T04:43:23;11.30;69.90
17887;DHT22;9069;52.044;7.472;2023-04-19T04:45:51;11.20;69.30
17887;DHT22;9069;52.044;7.472;2023-04-19T04:48:21;11.20;69.50
17887;DHT22;9069;52.044;7.472;2023-04-19T04:50:48;11.10;69.60
17887;DHT22;9069;52.044;7.472;2023-04-19T04:53:15;11.10;69.60
17887;DHT22;9069;52.044;7.472;2023-04-19T04:55:44;11.00;69.30
17887;DHT22;9069;52.044;7.472;2023-04-19T04:58:12;11.00;69.20
17887;DHT22;9069;52.044;7.472;2023-04-19T05:00:57;10.90;69.20
17887;DHT22;9069;52.044;7.472;2023-04-19T05:03:26;10.90;69.20
17887;DHT22;9069;52.044;7.472;2023-04-19T05:05:56;10.80;69.00
17887;DHT22;9069;52.044;7.472;2023-04-19T05:08:25;10.80;68.80
17887;DHT22;9069;52.044;7.472;2023-04-19T05:10:56;10.80;69.00
17887;DHT22;9069;52.044;7.472;2023-04-19T05:13:26;10.70;69.00
17887;DHT22;9069;52.044;7.472;2023-04-19T05:15:54;10.70;69.00
17887;DHT22;9069;52.044;7.472;2023-04-19T05:18:20;10.70;69.00
17887;DHT22;9069;52.044;7.472;2023-04-19T05:20:48;10.70;68.90
17887;DHT22;9069;52.044;7.472;2023-04-19T05:23:20;10.70;69.00
17887;DHT22;9069;52.044;7.472;2023-04-19T05:25:48;10.70;69.20
17887;DHT22;9069;52.044;7.472;2023-04-19T05:28:16;10.70;69.20
17887;DHT22;9069;52.044;7.472;2023-04-19T05:31:00;10.70;69.40
17887;DHT22;9069;52.044;7.472;2023-04-19T05:33:32;10.70;68.90
17887;DHT22;9069;52.044;7.472;2023-04-19T05:36:00;10.70;68.80
17887;DHT22;9069;52.044;7.472;2023-04-19T05:38:27;10.70;69.20
17887;DHT22;9069;52.044;7.472;2023-04-19T05:40:56;10.70;68.60
17887;DHT22;9069;52.044;7.472;2023-04-19T05:43:23;10.70;68.80
17887;DHT22;9069;52.044;7.472;2023-04-19T05:45:50;10.60;68.40
17887;DHT22;9069;52.044;7.472;2023-04-19T05:48:17;10.60;68.20
17887;DHT22;9069;52.044;7.472;2023-04-19T05:50:59;10.60;68.50
17887;DHT22;9069;52.044;7.472;2023-04-19T05:53:46;10.50;68.80
17887;DHT22;9069;52.044;7.472;2023-04-19T05:56:12;10.50;68.90
17887;DHT22;9069;52.044;7.472;2023-04-19T05:58:39;10.50;68.80
17887;DHT22;9069;52.044;7.472;2023-04-19T06:01:06;10.40;68.70
17887;DHT22;9069;52.044;7.472;2023-04-19T06:03:33;10.40;68.70
17887;DHT22;9069;52.044;7.472;2023-04-19T06:06:00;10.40;69.10
17887;DHT22;9069;52.044;7.472;2023-04-19T06:08:27;10.40;69.20
17887;DHT22;9069;52.044;7.472;2023-04-19T06:10:54;10.40;69.20
17887;DHT22;9069;52.044;7.472;2023-04-19T06:13:30;10.40;69.30
17887;DHT22;9069;52.044;7.472;2023-04-19T06:15:57;10.30;69.20
17887;DHT22;9069;52.044;7.472;2023-04-19T06:18:24;10.30;69.00
17887;DHT22;9069;52.044;7.472;2023-04-19T06:20:51;10.30;69.00
17887;DHT22;9069;52.044;7.472;2023-04-19T06:23:18;10.30;69.20
17887;DHT22;9069;52.044;7.472;2023-04-19T06:25:45;10.20;69.00
17887;DHT22;9069;52.044;7.472;2023-04-19T06:28:14;10.20;69.30
17887;DHT22;9069;52.044;7.472;2023-04-19T06:30:41;10.30;69.60
17887;DHT22;9069;52.044;7.472;2023-04-19T06:33:07;10.30;69.50
17887;DHT22;9069;52.044;7.472;2023-04-19T06:35:34;10.30;69.90
17887;DHT22;9069;52.044;7.472;2023-04-19T06:38:01;10.40;70.10
17887;DHT22;9069;52.044;7.472;2023-04-19T06:40:28;10.50;70.00
17887;DHT22;9069;52.044;7.472;2023-04-19T06:42:55;10.60;70.20
17887;DHT22;9069;52.044;7.472;2023-04-19T06:45:21;10.70;70.50
17887;DHT22;9069;52.044;7.472;2023-04-19T06:47:48;10.90;70.00
17887;DHT22;9069;52.044;7.472;2023-04-19T06:50:15;11.00;70.10
17887;DHT22;9069;52.044;7.472;2023-04-19T06:52:42;11.20;69.60
17887;DHT22;9069;52.044;7.472;2023-04-19T06:55:09;11.40;69.40
17887;DHT22;9069;52.044;7.472;2023-04-19T06:57:35;11.50;69.10
17887;DHT22;9069;52.044;7.472;2023-04-19T07:00:03;11.70;68.50
17887;DHT22;9069;52.044;7.472;2023-04-19T07:02:30;11.90;68.40
17887;DHT22;9069;52.044;7.472;2023-04-19T07:04:57;12.00;68.70
17887;DHT22;9069;52.044;7.472;2023-04-19T07:07:23;12.20;68.70
17887;DHT22;9069;52.044;7.472;2023-04-19T07:09:50;12.40;68.70
17887;DHT22;9069;52.044;7.472;2023-04-19T07:12:17;12.60;68.30
17887;DHT22;9069;52.044;7.472;2023-04-19T07:14:43;12.80;67.20
17887;DHT22;9069;52.044;7.472;2023-04-19T07:17:10;13.10;67.50
17887;DHT22;9069;52.044;7.472;2023-04-19T07:19:38;13.30;65.70
17887;DHT22;9069;52.044;7.472;2023-04-19T07:22:05;13.60;66.40
17887;DHT22;9069;52.044;7.472;2023-04-19T07:24:32;13.80;66.00
17887;DHT22;9069;52.044;7.472;2023-04-19T07:26:58;14.10;66.30
17887;DHT22;9069;52.044;7.472;2023-04-19T07:29:25;14.30;66.20
17887;DHT22;9069;52.044;7.472;2023-04-19T07:31:52;14.50;65.60
17887;DHT22;9069;52.044;7.472;2023-04-19T07:34:20;14.70;64.60
17887;DHT22;9069;52.044;7.472;2023-04-19T07:36:47;14.90;64.10
17887;DHT22;9069;52.044;7.472;2023-04-19T07:39:14;15.10;63.90
17887;DHT22;9069;52.044;7.472;2023-04-19T07:41:41;15.30;62.80
17887;DHT22;9069;52.044;7.472;2023-04-19T07:44:07;15.40;61.70
17887;DHT22;9069;52.044;7.472;2023-04-19T07:46:34;15.60;61.60
17887;DHT22;9069;52.044;7.472;2023-04-19T07:49:01;15.80;61.30
17887;DHT22;9069;52.044;7.472;2023-04-19T07:51:28;15.90;61.30
17887;DHT22;9069;52.044;7.472;2023-04-19T07:53:54;16.00;60.50
17887;DHT22;9069;52.044;7.472;2023-04-19T07:56:21;16.20;60.80
17887;DHT22;9069;52.044;7.472;2023-04-19T07:58:48;16.30;60.40
17887;DHT22;9069;52.044;7.472;2023-04-19T08:01:32;16.40;60.30
17887;DHT22;9069;52.044;7.472;2023-04-19T08:03:59;16.60;59.80
17887;DHT22;9069;52.044;7.472;2023-04-19T08:06:27;16.80;59.60
17887;DHT22;9069;52.044;7.472;2023-04-19T08:08:55;17.00;59.30
17887;DHT22;9069;52.044;7.472;2023-04-19T08:11:22;17.10;59.10
17887;DHT22;9069;52.044;7.472;2023-04-19T08:13:50;17.30;58.70
17887;DHT22;9069;52.044;7.472;2023-04-19T08:16:34;17.50;58.00
17887;DHT22;9069;52.044;7.472;2023-04-19T08:19:04;17.70;57.40
17887;DHT22;9069;52.044;7.472;2023-04-19T08:21:31;17.80;57.60
17887;DHT22;9069;52.044;7.472;2023-04-19T08:24:07;18.00;57.00
17887;DHT22;9069;52.044;7.472;2023-04-19T08:26:34;18.20;56.50
17887;DHT22;9069;52.044;7.472;2023-04-19T08:29:01;18.30;56.60
17887;DHT22;9069;52.044;7.472;2023-04-19T08:31:28;18.50;56.20
17887;DHT22;9069;52.044;7.472;2023-04-19T08:33:54;18.70;54.50
17887;DHT22;9069;52.044;7.472;2023-04-19T08:36:22;18.80;53.50
17887;DHT22;9069;52.044;7.472;2023-04-19T08:39:05;18.90;53.40
17887;DHT22;9069;52.044;7.472;2023-04-19T08:41:40;19.00;53.50
17887;DHT22;9069;52.044;7.472;2023-04-19T08:44:10;19.00;53.60
17887;DHT22;9069;52.044;7.472;2023-04-19T08:46:37;19.10;53.70
17887;DHT22;9069;52.044;7.472;2023-04-19T08:49:04;19.20;53.60
17887;DHT22;9069;52.044;7.472;2023-04-19T08:51:31;19.20;53.80
17887;DHT22;9069;52.044;7.472;2023-04-19T08:54:00;19.30;53.10
17887;DHT22;9069;52.044;7.472;2023-04-19T08:56:28;19.40;52.70
17887;DHT22;9069;52.044;7.472;2023-04-19T08:59:01;19.50;52.10
17887;DHT22;9069;52.044;7.472;2023-04-19T09:01:45;19.50;51.70
17887;DHT22;9069;52.044;7.472;2023-04-19T09:04:12;19.60;50.90
17887;DHT22;9069;52.044;7.472;2023-04-19T09:06:59;19.50;49.90
17887;DHT22;9069;52.044;7.472;2023-04-19T09:09:28;19.50;48.80
17887;DHT22;9069;52.044;7.472;2023-04-19T09:12:16;19.40;49.00
17887;DHT22;9069;52.044;7.472;2023-04-19T09:14:45;19.40;48.10
17887;DHT22;9069;52.044;7.472;2023-04-19T09:17:17;19.30;49.00
17887;DHT22;9069;52.044;7.472;2023-04-19T09:19:45;19.30;49.30
17887;DHT22;9069;52.044;7.472;2023-04-19T09:22:13;19.20;49.90
17887;DHT22;9069;52.044;7.472;2023-04-19T09:24:40;19.20;49.70
17887;DHT22;9069;52.044;7.472;2023-04-19T09:27:09;19.30;48.60
17887;DHT22;9069;52.044;7.472;2023-04-19T09:29:37;19.30;47.80
17887;DHT22;9069;52.044;7.472;2023-04-19T09:32:05;19.30;48.30
17887;DHT22;9069;52.044;7.472;2023-04-19T09:34:31;19.30;46.90
17887;DHT22;9069;52.044;7.472;2023-04-19T09:37:11;19.20;47.00
17887;DHT22;9069;52.044;7.472;2023-04-19T09:39:53;19.20;45.60
17887;DHT22;9069;52.044;7.472;2023-04-19T09:42:20;19.20;46.10
17887;DHT22;9069;52.044;7.472;2023-04-19T09:45:07;19.10;45.70
17887;DHT22;9069;52.044;7.472;2023-04-19T09:47:37;19.10;45.80
17887;DHT22;9069;52.044;7.472;2023-04-19T09:50:08;19.00;46.00
17887;DHT22;9069;52.044;7.472;2023-04-19T09:52:49;19.00;45.30
17887;DHT22;9069;52.044;7.472;2023-04-19T09:55:16;19.00;45.70
17887;DHT22;9069;52.044;7.472;2023-04-19T09:57:47;19.10;45.40
17887;DHT22;9069;52.044;7.472;2023-04-19T10:00:14;19.10;45.20
17887;DHT22;9069;52.044;7.472;2023-04-19T10:02:41;19.10;45.70
17887;DHT22;9069;52.044;7.472;2023-04-19T10:05:09;19.00;44.90
17887;DHT22;9069;52.044;7.472;2023-04-19T10:07:48;19.20;43.90
17887;DHT22;9069;52.044;7.472;2023-04-19T10:10:18;19.20;45.10
17887;DHT22;9069;52.044;7.472;2023-04-19T10:12:53;19.30;45.30
17887;DHT22;9069;52.044;7.472;2023-04-19T10:15:24;19.40;44.30
17887;DHT22;9069;52.044;7.472;2023-04-19T10:18:05;19.40;45.40
17887;DHT22;9069;52.044;7.472;2023-04-19T10:23:06;19.70;45.70
17887;DHT22;9069;52.044;7.472;2023-04-19T10:25:36;19.80;45.50
17887;DHT22;9069;52.044;7.472;2023-04-19T10:28:03;19.90;45.30
17887;DHT22;9069;52.044;7.472;2023-04-19T10:30:30;20.10;46.00
17887;DHT22;9069;52.044;7.472;2023-04-19T10:32:58;20.10;44.20
17887;DHT22;9069;52.044;7.472;2023-04-19T10:35:28;20.20;44.40
17887;DHT22;9069;52.044;7.472;2023-04-19T10:38:10;20.20;44.70
17887;DHT22;9069;52.044;7.472;2023-04-19T10:43:24;20.10;44.30
17887;DHT22;9069;52.044;7.472;2023-04-19T10:45:51;19.90;45.30
17887;DHT22;9069;52.044;7.472;2023-04-19T10:56:10;19.30;45.20
17887;DHT22;9069;52.044;7.472;2023-04-19T11:04:03;18.90;46.20
17887;DHT22;9069;52.044;7.472;2023-04-19T11:06:32;18.80;46.70
17887;DHT22;9069;52.044;7.472;2023-04-19T11:08:59;18.70;47.30
17887;DHT22;9069;52.044;7.472;2023-04-19T11:11:32;18.60;47.60
17887;DHT22;9069;52.044;7.472;2023-04-19T11:14:01;18.50;47.30
17887;DHT22;9069;52.044;7.472;2023-04-19T11:16:28;18.40;47.40
17887;DHT22;9069;52.044;7.472;2023-04-19T11:19:18;18.30;47.50
17887;DHT22;9069;52.044;7.472;2023-04-19T11:21:45;18.20;47.70
17887;DHT22;9069;52.044;7.472;2023-04-19T11:24:13;18.10;47.80
17887;DHT22;9069;52.044;7.472;2023-04-19T11:26:42;18.10;47.70
17887;DHT22;9069;52.044;7.472;2023-04-19T11:29:09;18.00;47.30
17887;DHT22;9069;52.044;7.472;2023-04-19T11:31:36;17.90;47.00
17887;DHT22;9069;52.044;7.472;2023-04-19T11:34:04;17.90;46.30
17887;DHT22;9069;52.044;7.472;2023-04-19T11:36:31;17.80;47.20
17887;DHT22;9069;52.044;7.472;2023-04-19T11:38:58;17.70;47.50
17887;DHT22;9069;52.044;7.472;2023-04-19T11:41:24;17.70;47.60
17887;DHT22;9069;52.044;7.472;2023-04-19T11:43:51;17.60;47.10
17887;DHT22;9069;52.044;7.472;2023-04-19T11:46:18;17.60;47.20
17887;DHT22;9069;52.044;7.472;2023-04-19T11:48:51;17.60;47.60
17887;DHT22;9069;52.044;7.472;2023-04-19T11:51:19;17.50;48.00
17887;DHT22;9069;52.044;7.472;2023-04-19T11:53:46;17.50;48.50
17887;DHT22;9069;52.044;7.472;2023-04-19T11:56:13;17.50;48.50
17887;DHT22;9069;52.044;7.472;2023-04-19T11:58:44;17.50;48.10
17887;DHT22;9069;52.044;7.472;2023-04-19T12:01:17;17.50;47.90
17887;DHT22;9069;52.044;7.472;2023-04-19T12:03:50;17.50;47.70
17887;DHT22;9069;52.044;7.472;2023-04-19T12:06:26;17.40;47.30
17887;DHT22;9069;52.044;7.472;2023-04-19T12:08:54;17.40;47.70
17887;DHT22;9069;52.044;7.472;2023-04-19T12:11:23;17.40;47.80
17887;DHT22;9069;52.044;7.472;2023-04-19T12:14:08;17.30;47.60
17887;DHT22;9069;52.044;7.472;2023-04-19T12:16:34;17.30;48.10
17887;DHT22;9069;52.044;7.472;2023-04-19T12:19:12;17.30;48.50
17887;DHT22;9069;52.044;7.472;2023-04-19T12:21:40;17.30;48.00
17887;DHT22;9069;52.044;7.472;2023-04-19T12:24:07;17.30;48.30
17887;DHT22;9069;52.044;7.472;2023-04-19T12:26:34;17.30;48.40
17887;DHT22;9069;52.044;7.472;2023-04-19T12:29:02;17.30;47.70
17887;DHT22;9069;52.044;7.472;2023-04-19T12:31:32;17.20;47.50
17887;DHT22;9069;52.044;7.472;2023-04-19T12:33:59;17.20;47.60
17887;DHT22;9069;52.044;7.472;2023-04-19T12:36:26;17.20;47.80
17887;DHT22;9069;52.044;7.472;2023-04-19T12:38:53;17.20;47.30
17887;DHT22;9069;52.044;7.472;2023-04-19T12:41:20;17.40;48.20
17887;DHT22;9069;52.044;7.472;2023-04-19T12:43:46;17.20;47.90
17887;DHT22;9069;52.044;7.472;2023-04-19T12:46:13;17.20;47.80
17887;DHT22;9069;52.044;7.472;2023-04-19T12:48:40;17.20;47.10
17887;DHT22;9069;52.044;7.472;2023-04-19T12:51:06;17.10;46.40
17887;DHT22;9069;52.044;7.472;2023-04-19T12:53:34;17.10;46.50
17887;DHT22;9069;52.044;7.472;2023-04-19T12:56:01;17.10;47.00
17887;DHT22;9069;52.044;7.472;2023-04-19T12:58:27;17.10;47.10
17887;DHT22;9069;52.044;7.472;2023-04-19T13:00:54;17.10;47.30
17887;DHT22;9069;52.044;7.472;2023-04-19T13:03:21;17.10;47.50
17887;DHT22;9069;52.044;7.472;2023-04-19T13:05:48;17.10;46.90
17887;DHT22;9069;52.044;7.472;2023-04-19T13:08:15;17.10;47.10
17887;DHT22;9069;52.044;7.472;2023-04-19T13:10:42;17.00;47.00
17887;DHT22;9069;52.044;7.472;2023-04-19T13:13:09;17.10;47.80
17887;DHT22;9069;52.044;7.472;2023-04-19T13:15:36;17.10;48.20
17887;DHT22;9069;52.044;7.472;2023-04-19T13:18:03;17.30;48.00
17887;DHT22;9069;52.044;7.472;2023-04-19T13:20:30;17.10;47.70
17887;DHT22;9069;52.044;7.472;2023-04-19T13:22:57;17.10;48.00
17887;DHT22;9069;52.044;7.472;2023-04-19T13:25:24;17.10;47.90
17887;DHT22;9069;52.044;7.472;2023-04-19T13:27:51;17.20;47.90
17887;DHT22;9069;52.044;7.472;2023-04-19T13:30:17;17.20;47.80
17887;DHT22;9069;52.044;7.472;2023-04-19T13:32:44;17.20;47.60
17887;DHT22;9069;52.044;7.472;2023-04-19T13:35:11;17.20;47.80
17887;DHT22;9069;52.044;7.472;2023-04-19T13:37:38;17.20;47.90
17887;DHT22;9069;52.044;7.472;2023-04-19T13:40:06;17.20;47.80
17887;DHT22;9069;52.044;7.472;2023-04-19T13:42:45;17.20;48.10
17887;DHT22;9069;52.044;7.472;2023-04-19T13:45:13;17.20;48.40
17887;DHT22;9069;52.044;7.472;2023-04-19T13:47:39;17.20;48.20
17887;DHT22;9069;52.044;7.472;2023-04-19T13:50:07;17.20;47.80
17887;DHT22;9069;52.044;7.472;2023-04-19T13:52:33;17.20;47.80
17887;DHT22;9069;52.044;7.472;2023-04-19T13:55:00;17.20;47.10
17887;DHT22;9069;52.044;7.472;2023-04-19T13:57:27;17.20;47.00
17887;DHT22;9069;52.044;7.472;2023-04-19T13:59:54;17.20;47.10
17887;DHT22;9069;52.044;7.472;2023-04-19T14:02:20;17.20;46.40
17887;DHT22;9069;52.044;7.472;2023-04-19T14:04:47;17.20;46.40
17887;DHT22;9069;52.044;7.472;2023-04-19T14:07:14;17.20;46.90
17887;DHT22;9069;52.044;7.472;2023-04-19T14:09:41;17.20;46.70
17887;DHT22;9069;52.044;7.472;2023-04-19T14:12:08;17.20;46.70
17887;DHT22;9069;52.044;7.472;2023-04-19T14:14:35;17.20;46.60
17887;DHT22;9069;52.044;7.472;2023-04-19T14:17:01;17.20;46.10
17887;DHT22;9069;52.044;7.472;2023-04-19T14:19:28;17.20;46.00
17887;DHT22;9069;52.044;7.472;2023-04-19T14:21:55;17.20;46.20
17887;DHT22;9069;52.044;7.472;2023-04-19T14:24:22;17.20;46.20
17887;DHT22;9069;52.044;7.472;2023-04-19T14:26:48;17.20;45.90
17887;DHT22;9069;52.044;7.472;2023-04-19T14:29:35;17.20;45.60
17887;DHT22;9069;52.044;7.472;2023-04-19T14:32:01;17.20;45.30
17887;DHT22;9069;52.044;7.472;2023-04-19T14:34:48;17.20;45.00
17887;DHT22;9069;52.044;7.472;2023-04-19T14:37:15;17.20;44.90
17887;DHT22;9069;52.044;7.472;2023-04-19T14:39:43;17.20;44.90
17887;DHT22;9069;52.044;7.472;2023-04-19T14:42:11;17.20;45.20
17887;DHT22;9069;52.044;7.472;2023-04-19T14:44:38;17.20;45.40
17887;DHT22;9069;52.044;7.472;2023-04-19T14:47:05;17.20;45.50
17887;DHT22;9069;52.044;7.472;2023-04-19T14:49:31;17.20;45.20
17887;DHT22;9069;52.044;7.472;2023-04-19T14:51:58;17.20;44.80
17887;DHT22;9069;52.044;7.472;2023-04-19T14:54:25;17.20;44.60
17887;DHT22;9069;52.044;7.472;2023-04-19T14:56:51;17.20;44.20
17887;DHT22;9069;52.044;7.472;2023-04-19T14:59:19;17.10;44.40
17887;DHT22;9069;52.044;7.472;2023-04-19T15:01:46;17.10;44.60
17887;DHT22;9069;52.044;7.472;2023-04-19T15:04:13;17.10;44.80
17887;DHT22;9069;52.044;7.472;2023-04-19T15:06:40;17.10;44.30
17887;DHT22;9069;52.044;7.472;2023-04-19T15:09:07;17.10;44.50
17887;DHT22;9069;52.044;7.472;2023-04-19T15:11:33;17.10;44.70
17887;DHT22;9069;52.044;7.472;2023-04-19T15:14:01;17.10;44.80
17887;DHT22;9069;52.044;7.472;2023-04-19T15:16:27;17.10;44.60
17887;DHT22;9069;52.044;7.472;2023-04-19T15:18:54;17.00;44.40
17887;DHT22;9069;52.044;7.472;2023-04-19T15:21:21;17.00;44.30
17887;DHT22;9069;52.044;7.472;2023-04-19T15:23:50;17.00;44.20
17887;DHT22;9069;52.044;7.472;2023-04-19T15:26:17;17.10;44.50
17887;DHT22;9069;52.044;7.472;2023-04-19T15:28:43;17.00;44.20
17887;DHT22;9069;52.044;7.472;2023-04-19T15:31:10;17.00;43.30
17887;DHT22;9069;52.044;7.472;2023-04-19T15:33:37;17.00;44.00
17887;DHT22;9069;52.044;7.472;2023-04-19T15:36:04;16.90;43.20
17887;DHT22;9069;52.044;7.472;2023-04-19T15:38:31;16.90;43.20
17887;DHT22;9069;52.044;7.472;2023-04-19T15:40:59;16.90;43.10
17887;DHT22;9069;52.044;7.472;2023-04-19T15:43:29;16.90;43.20
17887;DHT22;9069;52.044;7.472;2023-04-19T15:45:55;16.80;43.30
17887;DHT22;9069;52.044;7.472;2023-04-19T15:48:22;16.80;43.60
17887;DHT22;9069;52.044;7.472;2023-04-19T15:50:49;16.70;43.80
17887;DHT22;9069;52.044;7.472;2023-04-19T15:53:16;16.70;43.50
17887;DHT22;9069;52.044;7.472;2023-04-19T15:55:42;16.70;43.50
17887;DHT22;9069;52.044;7.472;2023-04-19T15:58:12;16.70;43.70
17887;DHT22;9069;52.044;7.472;2023-04-19T16:00:38;16.70;44.20
17887;DHT22;9069;52.044;7.472;2023-04-19T16:03:07;16.60;44.40
17887;DHT22;9069;52.044;7.472;2023-04-19T16:05:35;16.60;43.90
17887;DHT22;9069;52.044;7.472;2023-04-19T16:08:02;16.60;43.90
17887;DHT22;9069;52.044;7.472;2023-04-19T16:10:30;16.60;44.20
17887;DHT22;9069;52.044;7.472;2023-04-19T16:12:56;16.60;44.60